sensor_id;sensor_type;location;lat;lon;timestamp;temperature;humidity
66610;DHT22;53468;48.276;14.416;2023-07-31T03:53:26;15.30;99.90
66610;DHT22;53468;48.276;14.416;2023-07-31T03:59:46;15.30;99.90
66610;DHT22;53468;48.276;14.416;2023-07-31T04:05:53;15.30;99.90
66610;DHT22;53468;48.276;14.416;2023-07-31T04:11:59;15.40;99.90
66610;DHT22;53468;48.276;14.416;2023-07-31T04:17:48;15.30;99.90
66610;DHT22;53468;48.276;14.416;2023-07-31T04:23:59;15.40;99.90
66610;DHT22;53468;48.276;14.416;2023-07-31T07:50:38;21.60;99.90
66610;DHT22;53468;48.276;14.416;2023-07-31T07:56:16;21.70;99.90
66610;DHT22;53468;48.276;14.416;2023-07-31T08:01:22;22.50;99.90
66610;DHT22;53468;48.276;14.416;2023-07-31T08:06:44;22.50;99.90
66610;DHT22;53468;48.276;14.416;2023-07-31T08:11:52;22.40;99.90
66610;DHT22;53468;48.276;14.416;2023-07-31T08:16:55;22.40;99.90
66610;DHT22;53468;48.276;14.416;2023-07-31T08:22:09;22.50;99.90
66610;DHT22;53468;48.276;14.416;2023-07-31T08:27:34;22.30;99.90
66610;DHT22;53468;48.276;14.416;2023-07-31T08:32:39;22.20;99.00
66610;DHT22;53468;48.276;14.416;2023-07-31T08:38:12;22.20;99.90
66610;DHT22;53468;48.276;14.416;2023-07-31T08:43:20;22.40;97.10
66610;DHT22;53468;48.276;14.416;2023-07-31T08:48:28;22.50;98.40
66610;DHT22;53468;48.276;14.416;2023-07-31T08:53:45;22.70;99.90
66610;DHT22;53468;48.276;14.416;2023-07-31T08:58:54;22.50;96.70
66610;DHT22;53468;48.276;14.416;2023-07-31T09:04:00;22.30;99.30
66610;DHT22;53468;48.276;14.416;2023-07-31T09:09:08;22.70;98.20
66610;DHT22;53468;48.276;14.416;2023-07-31T09:14:13;22.70;97.60
66610;DHT22;53468;48.276;14.416;2023-07-31T09:19:25;23.00;96.20
66610;DHT22;53468;48.276;14.416;2023-07-31T09:24:34;23.10;98.50
66610;DHT22;53468;48.276;14.416;2023-07-31T09:29:37;22.90;96.30
66610;DHT22;53468;48.276;14.416;2023-07-31T09:34:42;23.00;99.90
66610;DHT22;53468;48.276;14.416;2023-07-31T09:39:48;23.20;96.60
66610;DHT22;53468;48.276;14.416;2023-07-31T09:45:07;23.30;97.30
66610;DHT22;53468;48.276;14.416;2023-07-31T09:50:11;23.50;99.60
66610;DHT22;53468;48.276;14.416;2023-07-31T09:55:16;23.70;98.60
66610;DHT22;53468;48.276;14.416;2023-07-31T10:00:21;24.10;99.60
66610;DHT22;53468;48.276;14.416;2023-07-31T10:05:31;24.10;98.40
66610;DHT22;53468;48.276;14.416;2023-07-31T10:10:37;24.80;97.50
66610;DHT22;53468;48.276;14.416;2023-07-31T10:15:43;25.00;96.40
66610;DHT22;53468;48.276;14.416;2023-07-31T10:20:47;24.50;97.30
66610;DHT22;53468;48.276;14.416;2023-07-31T10:25:57;24.50;99.10
66610;DHT22;53468;48.276;14.416;2023-07-31T10:31:02;25.20;99.90
66610;DHT22;53468;48.276;14.416;2023-07-31T10:36:14;25.30;95.20
66610;DHT22;53468;48.276;14.416;2023-07-31T10:41:20;25.10;96.20
66610;DHT22;53468;48.276;14.416;2023-07-31T10:46:29;25.50;95.10
66610;DHT22;53468;48.276;14.416;2023-07-31T10:51:35;25.50;92.70
66610;DHT22;53468;48.276;14.416;2023-07-31T10:56:39;25.90;93.00
66610;DHT22;53468;48.276;14.416;2023-07-31T11:01:51;26.10;92.60
66610;DHT22;53468;48.276;14.416;2023-07-31T11:06:56;26.30;92.90
66610;DHT22;53468;48.276;14.416;2023-07-31T11:12:01;26.00;91.30
66610;DHT22;53468;48.276;14.416;2023-07-31T11:17:06;26.30;88.20
66610;DHT22;53468;48.276;14.416;2023-07-31T11:22:08;26.30;91.40
66610;DHT22;53468;48.276;14.416;2023-07-31T11:27:12;26.50;88.60
66610;DHT22;53468;48.276;14.416;2023-07-31T11:32:16;26.30;91.40
66610;DHT22;53468;48.276;14.416;2023-07-31T11:37:18;26.10;87.80
66610;DHT22;53468;48.276;14.416;2023-07-31T11:42:22;25.90;83.50
66610;DHT22;53468;48.276;14.416;2023-07-31T11:47:26;25.90;88.80
66610;DHT22;53468;48.276;14.416;2023-07-31T11:52:29;25.80;85.50
66610;DHT22;53468;48.276;14.416;2023-07-31T11:57:33;25.90;92.00
66610;DHT22;53468;48.276;14.416;2023-07-31T12:02:36;25.70;91.10
66610;DHT22;53468;48.276;14.416;2023-07-31T12:07:47;25.60;88.60
66610;DHT22;53468;48.276;14.416;2023-07-31T12:13:00;25.60;89.70
66610;DHT22;53468;48.276;14.416;2023-07-31T12:18:07;25.70;92.30
66610;DHT22;53468;48.276;14.416;2023-07-31T12:23:19;25.90;86.50
66610;DHT22;53468;48.276;14.416;2023-07-31T12:28:29;26.40;86.60
66610;DHT22;53468;48.276;14.416;2023-07-31T12:33:32;26.40;85.90
66610;DHT22;53468;48.276;14.416;2023-07-31T12:38:36;26.10;87.00
66610;DHT22;53468;48.276;14.416;2023-07-31T12:43:41;25.70;92.30
66610;DHT22;53468;48.276;14.416;2023-07-31T12:48:43;25.70;89.50
66610;DHT22;53468;48.276;14.416;2023-07-31T12:53:45;26.30;92.30
66610;DHT22;53468;48.276;14.416;2023-07-31T12:58:49;26.00;90.80
66610;DHT22;53468;48.276;14.416;2023-07-31T13:03:51;25.60;90.50
66610;DHT22;53468;48.276;14.416;2023-07-31T13:08:53;25.80;87.10
66610;DHT22;53468;48.276;14.416;2023-07-31T13:13:57;25.70;87.50
66610;DHT22;53468;48.276;14.416;2023-07-31T13:18:59;26.00;90.70
66610;DHT22;53468;48.276;14.416;2023-07-31T13:24:01;26.00;91.90
66610;DHT22;53468;48.276;14.416;2023-07-31T13:29:06;26.20;86.80
66610;DHT22;53468;48.276;14.416;2023-07-31T13:34:08;26.20;88.60
66610;DHT22;53468;48.276;14.416;2023-07-31T13:39:12;26.30;88.30
66610;DHT22;53468;48.276;14.416;2023-07-31T13:44:35;26.50;88.10
66610;DHT22;53468;48.276;14.416;2023-07-31T13:49:44;26.30;88.50
66610;DHT22;53468;48.276;14.416;2023-07-31T13:54:51;26.50;86.60
66610;DHT22;53468;48.276;14.416;2023-07-31T13:59:58;26.40;85.60
66610;DHT22;53468;48.276;14.416;2023-07-31T14:05:03;26.40;83.60
66610;DHT22;53468;48.276;14.416;2023-07-31T14:10:08;26.60;85.60
66610;DHT22;53468;48.276;14.416;2023-07-31T14:15:14;26.40;85.90
66610;DHT22;53468;48.276;14.416;2023-07-31T14:20:17;26.10;85.80
66610;DHT22;53468;48.276;14.416;2023-07-31T14:25:22;26.00;85.70
66610;DHT22;53468;48.276;14.416;2023-07-31T14:30:28;26.10;86.00
66610;DHT22;53468;48.276;14.416;2023-07-31T14:35:32;26.10;85.30
66610;DHT22;53468;48.276;14.416;2023-07-31T14:40:35;26.20;84.00
66610;DHT22;53468;48.276;14.416;2023-07-31T14:45:41;26.30;85.20
66610;DHT22;53468;48.276;14.416;2023-07-31T14:50:46;26.50;82.50
66610;DHT22;53468;48.276;14.416;2023-07-31T14:55:50;26.40;86.80
66610;DHT22;53468;48.276;14.416;2023-07-31T15:01:02;26.20;84.00
66610;DHT22;53468;48.276;14.416;2023-07-31T15:06:06;25.90;83.50
66610;DHT22;53468;48.276;14.416;2023-07-31T15:11:10;26.10;85.70
66610;DHT22;53468;48.276;14.416;2023-07-31T15:16:15;26.20;83.70
66610;DHT22;53468;48.276;14.416;2023-07-31T15:21:20;26.00;84.70
66610;DHT22;53468;48.276;14.416;2023-07-31T15:26:46;26.30;83.10
66610;DHT22;53468;48.276;14.416;2023-07-31T15:31:53;26.30;85.00
66610;DHT22;53468;48.276;14.416;2023-07-31T15:36:57;26.20;80.20
66610;DHT22;53468;48.276;14.416;2023-07-31T15:42:00;26.10;79.20
66610;DHT22;53468;48.276;14.416;2023-07-31T15:47:07;25.90;83.90
66610;DHT22;53468;48.276;14.416;2023-07-31T15:52:10;25.80;81.90
66610;DHT22;53468;48.276;14.416;2023-07-31T15:57:13;25.80;80.60
66610;DHT22;53468;48.276;14.416;2023-07-31T16:02:20;25.60;83.40
66610;DHT22;53468;48.276;14.416;2023-07-31T16:07:31;25.50;84.60
66610;DHT22;53468;48.276;14.416;2023-07-31T16:12:35;25.60;82.40
66610;DHT22;53468;48.276;14.416;2023-07-31T16:17:44;25.60;84.60
66610;DHT22;53468;48.276;14.416;2023-07-31T16:22:48;25.50;84.10
66610;DHT22;53468;48.276;14.416;2023-07-31T16:27:52;25.40;83.60
66610;DHT22;53468;48.276;14.416;2023-07-31T16:32:58;25.40;84.80
66610;DHT22;53468;48.276;14.416;2023-07-31T16:38:01;25.40;85.80
66610;DHT22;53468;48.276;14.416;2023-07-31T16:43:04;25.40;86.80
66610;DHT22;53468;48.276;14.416;2023-07-31T16:48:09;25.30;88.10
66610;DHT22;53468;48.276;14.416;2023-07-31T16:53:13;25.10;87.30
66610;DHT22;53468;48.276;14.416;2023-07-31T16:58:16;25.10;90.00
66610;DHT22;53468;48.276;14.416;2023-07-31T17:03:24;25.10;87.80
66610;DHT22;53468;48.276;14.416;2023-07-31T17:08:30;25.00;87.00
66610;DHT22;53468;48.276;14.416;2023-07-31T17:13:36;25.10;86.20
66610;DHT22;53468;48.276;14.416;2023-07-31T17:18:43;25.10;87.80
66610;DHT22;53468;48.276;14.416;2023-07-31T17:23:47;25.00;91.20
66610;DHT22;53468;48.276;14.416;2023-07-31T17:28:51;24.90;92.20
66610;DHT22;53468;48.276;14.416;2023-07-31T17:33:59;24.80;88.90
66610;DHT22;53468;48.276;14.416;2023-07-31T17:39:08;24.60;92.40
66610;DHT22;53468;48.276;14.416;2023-07-31T17:44:32;24.50;93.70
66610;DHT22;53468;48.276;14.416;2023-07-31T17:49:44;24.10;93.10
66610;DHT22;53468;48.276;14.416;2023-07-31T17:54:52;23.90;93.80
66610;DHT22;53468;48.276;14.416;2023-07-31T18:00:19;23.70;94.30
66610;DHT22;53468;48.276;14.416;2023-07-31T18:05:25;23.40;94.70
66610;DHT22;53468;48.276;14.416;2023-07-31T18:10:27;23.20;95.70
66610;DHT22;53468;48.276;14.416;2023-07-31T18:15:30;23.00;95.90
66610;DHT22;53468;48.276;14.416;2023-07-31T18:20:35;22.80;96.60
66610;DHT22;53468;48.276;14.416;2023-07-31T18:25:40;22.70;99.10
66610;DHT22;53468;48.276;14.416;2023-07-31T18:30:42;22.60;99.70
66610;DHT22;53468;48.276;14.416;2023-07-31T18:35:46;22.40;99.20
66610;DHT22;53468;48.276;14.416;2023-07-31T18:40:49;22.40;99.90
66610;DHT22;53468;48.276;14.416;2023-07-31T18:45:53;22.40;99.90
66610;DHT22;53468;48.276;14.416;2023-07-31T18:50:58;22.30;99.90
66610;DHT22;53468;48.276;14.416;2023-07-31T18:56:03;22.10;99.90
66610;DHT22;53468;48.276;14.416;2023-07-31T19:01:06;22.00;99.90
66610;DHT22;53468;48.276;14.416;2023-07-31T19:06:11;21.90;99.90
66610;DHT22;53468;48.276;14.416;2023-07-31T19:11:13;21.90;99.90
66610;DHT22;53468;48.276;14.416;2023-07-31T19:16:19;21.80;99.90
66610;DHT22;53468;48.276;14.416;2023-07-31T19:21:23;21.70;99.90
66610;DHT22;53468;48.276;14.416;2023-07-31T19:26:25;21.70;99.90
66610;DHT22;53468;48.276;14.416;2023-07-31T19:31:28;21.60;99.90
66610;DHT22;53468;48.276;14.416;2023-07-31T19:36:33;21.50;99.90
66610;DHT22;53468;48.276;14.416;2023-07-31T19:41:36;21.40;99.90
66610;DHT22;53468;48.276;14.416;2023-07-31T19:46:43;21.40;99.90
66610;DHT22;53468;48.276;14.416;2023-07-31T19:51:48;21.30;99.90
66610;DHT22;53468;48.276;14.416;2023-07-31T19:56:53;21.10;99.90
66610;DHT22;53468;48.276;14.416;2023-07-31T20:02:08;21.10;99.90
66610;DHT22;53468;48.276;14.416;2023-07-31T20:07:20;21.00;99.90
66610;DHT22;53468;48.276;14.416;2023-07-31T20:12:28;20.90;99.90
66610;DHT22;53468;48.276;14.416;2023-07-31T20:17:43;20.80;99.90
66610;DHT22;53468;48.276;14.416;2023-07-31T20:23:15;20.70;99.90
66610;DHT22;53468;48.276;14.416;2023-07-31T20:28:54;20.60;99.90
66610;DHT22;53468;48.276;14.416;2023-07-31T20:33:58;20.40;99.90
66610;DHT22;53468;48.276;14.416;2023-07-31T20:39:05;20.20;99.90
66610;DHT22;53468;48.276;14.416;2023-07-31T20:44:12;20.10;99.90
66610;DHT22;53468;48.276;14.416;2023-07-31T20:49:17;19.90;99.90
66610;DHT22;53468;48.276;14.416;2023-07-31T20:54:30;19.80;99.90
66610;DHT22;53468;48.276;14.416;2023-07-31T20:59:39;19.70;99.90
66610;DHT22;53468;48.276;14.416;2023-07-31T21:04:52;19.60;99.90
66610;DHT22;53468;48.276;14.416;2023-07-31T21:10:14;19.60;99.90
66610;DHT22;53468;48.276;14.416;2023-07-31T21:15:47;19.60;99.90
66610;DHT22;53468;48.276;14.416;2023-07-31T21:20:56;19.60;99.90
66610;DHT22;53468;48.276;14.416;2023-07-31T21:26:35;19.50;99.90
66610;DHT22;53468;48.276;14.416;2023-07-31T21:31:53;19.50;99.90
66610;DHT22;53468;48.276;14.416;2023-07-31T21:37:04;19.30;99.90
66610;DHT22;53468;48.276;14.416;2023-07-31T21:42:25;19.30;99.90
66610;DHT22;53468;48.276;14.416;2023-07-31T21:47:34;19.30;99.90
66610;DHT22;53468;48.276;14.416;2023-07-31T21:52:52;19.20;99.90
66610;DHT22;53468;48.276;14.416;2023-07-31T21:58:26;19.20;99.90
66610;DHT22;53468;48.276;14.416;2023-07-31T22:03:52;19.10;99.90
66610;DHT22;53468;48.276;14.416;2023-07-31T22:09:31;19.00;99.90
66610;DHT22;53468;48.276;14.416;2023-07-31T22:15:27;18.90;99.90
66610;DHT22;53468;48.276;14.416;2023-07-31T22:21:08;18.80;99.90
66610;DHT22;53468;48.276;14.416;2023-07-31T22:26:29;18.60;99.90
66610;DHT22;53468;48.276;14.416;2023-07-31T22:32:16;18.50;99.90
66610;DHT22;53468;48.276;14.416;2023-07-31T22:37:55;18.40;99.90
66610;DHT22;53468;48.276;14.416;2023-07-31T22:43:31;18.20;99.90
66610;DHT22;53468;48.276;14.416;2023-07-31T23:12:24;18.00;99.90
66610;DHT22;53468;48.276;14.416;2023-07-31T23:18:06;18.00;99.90
66610;DHT22;53468;48.276;14.416;2023-07-31T23:23:42;17.90;99.90
66610;DHT22;53468;48.276;14.416;2023-07-31T23:29:38;17.90;99.90
66610;DHT22;53468;48.276;14.416;2023-07-31T23:35:19;17.80;99.90
66610;DHT22;53468;48.276;14.416;2023-07-31T23:40:59;17.70;99.90
